createdAt,value
2018-02-27T00:00:09.359Z,69.96
2018-02-27T00:00:35.472Z,69.96
2018-02-27T00:01:01.594Z,69.67
2018-02-27T00:01:27.664Z,70.15
2018-02-27T00:01:53.758Z,70.56
2018-02-27T00:02:19.862Z,70.62
2018-02-27T00:02:45.956Z,70.43
2018-02-27T00:03:12.055Z,70.34
2018-02-27T00:03:38.153Z,70.34
2018-02-27T00:04:04.249Z,70.53
2018-02-27T00:04:30.344Z,70.53
2018-02-27T00:04:56.445Z,70.62
2018-02-27T00:05:22.533Z,70.43
2018-02-27T00:05:48.633Z,70.72
2018-02-27T00:06:14.775Z,70.72
2018-02-27T00:06:40.848Z,70.84
2018-02-27T00:07:06.945Z,71.31
2018-02-27T00:07:33.048Z,71.22
2018-02-27T00:07:59.160Z,71.03
2018-02-27T00:08:25.260Z,70.94
2018-02-27T00:08:51.373Z,70.75
2018-02-27T00:09:17.492Z,70.18
2018-02-27T00:09:43.589Z,70.65
2018-02-27T00:10:09.691Z,70.18
2018-02-27T00:10:35.783Z,70.94
2018-02-27T00:11:01.885Z,71.03
2018-02-27T00:11:28.000Z,70.84
2018-02-27T00:11:54.096Z,70.75
2018-02-27T00:12:20.199Z,71.12
2018-02-27T00:12:46.301Z,70.84
2018-02-27T00:13:12.396Z,70.94
2018-02-27T00:13:38.523Z,71.31
2018-02-27T00:14:04.625Z,70.9
2018-02-27T00:14:30.757Z,71.19
2018-02-27T00:14:56.850Z,71.37
2018-02-27T00:15:22.950Z,71.6
2018-02-27T00:15:49.049Z,71.22
2018-02-27T00:16:15.140Z,71.5
2018-02-27T00:16:41.241Z,71.09
2018-02-27T00:17:07.356Z,71.19
2018-02-27T00:17:33.455Z,71.56
2018-02-27T00:17:59.552Z,71.37
2018-02-27T00:18:25.646Z,70.84
2018-02-27T00:18:51.747Z,71.19
2018-02-27T00:19:17.845Z,70.9
2018-02-27T00:19:43.940Z,70.75
2018-02-27T00:20:10.043Z,70.75
2018-02-27T00:20:36.137Z,71.41
2018-02-27T00:21:02.235Z,71.41
2018-02-27T00:21:28.330Z,71.31
2018-02-27T00:21:54.452Z,71.69
2018-02-27T00:22:20.547Z,70.65
2018-02-27T00:22:46.643Z,71.22
2018-02-27T00:23:12.781Z,71.41
2018-02-27T00:23:38.869Z,70.84
2018-02-27T00:24:04.973Z,70.94
2018-02-27T00:24:31.085Z,71.41
2018-02-27T00:24:57.182Z,71.03
2018-02-27T00:25:23.280Z,71.12
2018-02-27T00:25:49.374Z,71.5
2018-02-27T00:26:15.490Z,71.41
2018-02-27T00:26:41.592Z,71.41
2018-02-27T00:27:07.689Z,71.41
2018-02-27T00:27:33.791Z,71.6
2018-02-27T00:27:59.890Z,71.5
2018-02-27T00:28:25.996Z,71.6
2018-02-27T00:28:52.107Z,71.31
2018-02-27T00:29:18.226Z,71.31
2018-02-27T00:29:44.320Z,70.94
2018-02-27T00:30:10.408Z,71.03
2018-02-27T00:30:36.511Z,71.31
2018-02-27T00:31:02.606Z,71.31
2018-02-27T00:31:28.715Z,71.31
2018-02-27T00:31:54.813Z,70.94
2018-02-27T00:32:20.919Z,70.75
2018-02-27T00:32:47.027Z,70.65
2018-02-27T00:33:13.123Z,70.94
2018-02-27T00:33:39.217Z,70.65
2018-02-27T00:34:05.317Z,70.56
2018-02-27T00:34:31.417Z,70.56
2018-02-27T00:34:57.516Z,70.56
2018-02-27T00:35:23.610Z,70.56
2018-02-27T00:35:49.705Z,70.56
2018-02-27T00:36:15.807Z,70.47
2018-02-27T00:36:41.904Z,70.75
2018-02-27T00:37:08.000Z,70.65
2018-02-27T00:37:34.097Z,70.09
2018-02-27T00:38:00.205Z,70
2018-02-27T00:38:26.311Z,69.81
2018-02-27T00:38:52.408Z,69.62
2018-02-27T00:39:18.509Z,70.09
2018-02-27T00:39:44.627Z,69.9
2018-02-27T00:40:10.722Z,69.81
2018-02-27T00:40:36.816Z,69.9
2018-02-27T00:41:02.932Z,69.62
2018-02-27T00:41:29.028Z,69.9
2018-02-27T00:41:55.130Z,70
2018-02-27T00:42:21.238Z,70.18
2018-02-27T00:42:47.337Z,70
2018-02-27T00:43:13.438Z,69.62
2018-02-27T00:43:39.536Z,70
2018-02-27T00:44:05.643Z,70.18
2018-02-27T00:44:31.742Z,70.09
2018-02-27T00:44:57.841Z,70.18
2018-02-27T00:45:23.938Z,69.62
2018-02-27T00:45:50.037Z,70.47
2018-02-27T00:46:16.136Z,70.56
2018-02-27T00:46:42.236Z,70.18
2018-02-27T00:47:08.343Z,70
2018-02-27T00:47:34.445Z,69.43
2018-02-27T00:48:00.540Z,69.62
2018-02-27T00:48:26.642Z,69.71
2018-02-27T00:48:52.749Z,69.71
2018-02-27T00:49:18.838Z,69.71
2018-02-27T00:49:44.952Z,69.43
2018-02-27T00:50:11.048Z,69.52
2018-02-27T00:50:37.146Z,69.71
2018-02-27T00:51:03.236Z,69.52
2018-02-27T00:51:29.345Z,69.62
2018-02-27T00:51:55.454Z,69.62
2018-02-27T00:52:21.552Z,70.09
2018-02-27T00:52:47.654Z,69.43
2018-02-27T00:53:13.748Z,69.81
2018-02-27T00:53:39.850Z,69.71
2018-02-27T00:54:05.946Z,69.62
2018-02-27T00:54:32.051Z,69.43
2018-02-27T00:54:58.147Z,69.43
2018-02-27T00:55:24.250Z,69.33
2018-02-27T00:55:50.350Z,69.9
2018-02-27T00:56:16.447Z,69.52
2018-02-27T00:56:42.544Z,69.52
2018-02-27T00:57:08.637Z,69.71
2018-02-27T00:57:34.736Z,69.81
2018-02-27T00:58:00.829Z,69.33
2018-02-27T00:58:26.928Z,69.33
2018-02-27T00:58:53.028Z,69.05
2018-02-27T00:59:19.140Z,68.86
2018-02-27T00:59:45.234Z,68.86
2018-02-27T01:00:11.334Z,68.95
2018-02-27T01:00:37.427Z,69.05
2018-02-27T01:01:03.523Z,69.05
2018-02-27T01:01:29.624Z,68.86
2018-02-27T01:01:55.719Z,69.14
2018-02-27T01:02:21.821Z,69.14
2018-02-27T01:02:47.920Z,69.33
2018-02-27T01:03:14.014Z,68.95
2018-02-27T01:03:40.108Z,68.57
2018-02-27T01:04:06.210Z,69.05
2018-02-27T01:04:32.333Z,68.48
2018-02-27T01:04:58.425Z,68.48
2018-02-27T01:05:24.529Z,68.39
2018-02-27T01:05:50.657Z,68.57
2018-02-27T01:06:16.723Z,68.86
2018-02-27T01:06:42.858Z,68.67
2018-02-27T01:07:08.967Z,68.86
2018-02-27T01:07:35.063Z,68.67
2018-02-27T01:08:01.159Z,68.48
2018-02-27T01:08:27.259Z,69.05
2018-02-27T01:08:53.353Z,68.57
2018-02-27T01:09:19.453Z,68.67
2018-02-27T01:09:45.549Z,68.57
2018-02-27T01:10:11.649Z,68.57
2018-02-27T01:10:37.748Z,68.57
2018-02-27T01:11:03.844Z,68.76
2018-02-27T01:11:29.963Z,68.57
2018-02-27T01:11:56.064Z,68.57
2018-02-27T01:12:22.164Z,68.76
2018-02-27T01:12:48.256Z,68.1
2018-02-27T01:13:14.352Z,68.16
2018-02-27T01:13:40.446Z,67.88
2018-02-27T01:14:06.550Z,67.79
2018-02-27T01:14:32.668Z,68.26
2018-02-27T01:14:58.765Z,67.97
2018-02-27T01:15:24.859Z,68.44
2018-02-27T01:15:50.977Z,68.54
2018-02-27T01:16:17.075Z,68.63
2018-02-27T01:16:43.168Z,68.63
2018-02-27T01:17:09.274Z,68.63
2018-02-27T01:17:35.377Z,68.63
2018-02-27T01:18:01.472Z,68.73
2018-02-27T01:18:27.570Z,68.54
2018-02-27T01:18:53.669Z,67.97
2018-02-27T01:19:19.767Z,68.16
2018-02-27T01:19:45.867Z,68.07
2018-02-27T01:20:11.964Z,68.35
2018-02-27T01:20:38.060Z,68.44
2018-02-27T01:21:04.171Z,68.26
2018-02-27T01:21:30.257Z,68.73
2018-02-27T01:21:56.355Z,68.54
2018-02-27T01:22:22.450Z,68.54
2018-02-27T01:22:48.548Z,68.73
2018-02-27T01:23:14.646Z,68.26
2018-02-27T01:23:40.747Z,68.26
2018-02-27T01:24:06.840Z,68.26
2018-02-27T01:24:32.936Z,68.54
2018-02-27T01:24:59.037Z,68.26
2018-02-27T01:25:25.151Z,68.26
2018-02-27T01:25:51.247Z,68.16
2018-02-27T01:26:17.341Z,67.88
2018-02-27T01:26:43.440Z,67.79
2018-02-27T01:27:09.534Z,67.79
2018-02-27T01:27:35.635Z,67.79
2018-02-27T01:28:01.745Z,68.44
2018-02-27T01:28:27.847Z,67.97
2018-02-27T01:28:53.945Z,68.35
2018-02-27T01:29:20.038Z,68.35
2018-02-27T01:29:46.136Z,67.6
2018-02-27T01:30:12.237Z,67.79
2018-02-27T01:30:38.332Z,68.54
2018-02-27T01:31:04.456Z,68.35
2018-02-27T01:31:30.555Z,68.26
2018-02-27T01:31:56.648Z,68.44
2018-02-27T01:32:22.742Z,68.44
2018-02-27T01:32:48.842Z,68.35
2018-02-27T01:33:14.935Z,68.26
2018-02-27T01:33:41.034Z,68.35
2018-02-27T01:34:07.133Z,68.44
2018-02-27T01:34:33.250Z,68.07
2018-02-27T01:34:59.350Z,68.44
2018-02-27T01:35:25.449Z,68.26
2018-02-27T01:35:51.546Z,68.63
2018-02-27T01:36:17.640Z,68.26
2018-02-27T01:36:43.737Z,68.63
2018-02-27T01:37:09.843Z,68.35
2018-02-27T01:37:35.942Z,68.54
2018-02-27T01:38:02.036Z,68.63
2018-02-27T01:38:28.132Z,68.82
2018-02-27T01:38:54.245Z,69.3
2018-02-27T01:39:20.345Z,69.3
2018-02-27T01:39:46.457Z,69.01
2018-02-27T01:40:12.552Z,68.92
2018-02-27T01:40:38.653Z,69.11
2018-02-27T01:41:04.753Z,68.92
2018-02-27T01:41:30.844Z,69.3
2018-02-27T01:41:56.946Z,68.73
2018-02-27T01:42:23.043Z,69.2
2018-02-27T01:42:49.139Z,69.3
2018-02-27T01:43:15.232Z,69.2
2018-02-27T01:43:41.336Z,69.01
2018-02-27T01:44:07.428Z,69.01
2018-02-27T01:44:33.530Z,69.11
2018-02-27T01:44:59.626Z,69.01
2018-02-27T01:45:25.717Z,69.3
2018-02-27T01:45:51.819Z,69.11
2018-02-27T01:46:17.914Z,69.2
2018-02-27T01:46:44.017Z,69.11
2018-02-27T01:47:10.110Z,69.3
2018-02-27T01:47:36.211Z,69.3
2018-02-27T01:48:02.311Z,68.63
2018-02-27T01:48:28.405Z,68.82
2018-02-27T01:48:54.501Z,68.44
2018-02-27T01:49:20.603Z,68.63
2018-02-27T01:49:46.703Z,68.73
2018-02-27T01:50:12.800Z,68.16
2018-02-27T01:50:38.901Z,68.16
2018-02-27T01:51:04.995Z,68.16
2018-02-27T01:51:31.103Z,68.44
2018-02-27T01:51:57.194Z,68.16
2018-02-27T01:52:23.299Z,68.26
2018-02-27T01:52:49.446Z,68.35
2018-02-27T01:53:15.540Z,68.26
2018-02-27T01:53:41.643Z,68.07
2018-02-27T01:54:07.741Z,68.73
2018-02-27T01:54:33.834Z,68.26
2018-02-27T01:54:59.937Z,68.54
2018-02-27T01:55:26.032Z,68.16
2018-02-27T01:55:52.122Z,68.26
2018-02-27T01:56:18.276Z,68.44
2018-02-27T01:56:44.374Z,68.26
2018-02-27T01:57:10.475Z,68.44
2018-02-27T01:57:36.567Z,67.6
2018-02-27T01:58:02.670Z,67.88
2018-02-27T01:58:28.764Z,68.26
2018-02-27T01:58:54.860Z,68.07
2018-02-27T01:59:20.955Z,67.88
2018-02-27T01:59:47.051Z,68.26
2018-02-27T02:00:13.150Z,67.97
2018-02-27T02:00:39.244Z,67.6
2018-02-27T02:01:05.346Z,67.41
2018-02-27T02:01:31.451Z,67.6
2018-02-27T02:01:57.546Z,68.07
2018-02-27T02:02:23.650Z,67.69
2018-02-27T02:02:49.741Z,68.07
2018-02-27T02:03:15.843Z,68.26
2018-02-27T02:03:41.942Z,67.6
2018-02-27T02:04:08.037Z,67.69
2018-02-27T02:04:34.137Z,68.16
2018-02-27T02:05:00.233Z,68.35
2018-02-27T02:05:26.351Z,67.88
2018-02-27T02:05:52.446Z,68.35
2018-02-27T02:06:18.546Z,68.35
2018-02-27T02:06:44.642Z,67.97
2018-02-27T02:07:10.738Z,68.26
2018-02-27T02:07:36.841Z,68.26
2018-02-27T02:08:02.936Z,68.35
2018-02-27T02:08:29.033Z,68.26
2018-02-27T02:08:55.122Z,68.16
2018-02-27T02:09:21.241Z,68.26
2018-02-27T02:09:47.344Z,68.35
2018-02-27T02:10:13.439Z,67.88
2018-02-27T02:10:39.539Z,67.88
2018-02-27T02:11:05.632Z,68.07
2018-02-27T02:11:31.727Z,68.26
2018-02-27T02:11:57.827Z,68.35
2018-02-27T02:12:23.924Z,68.16
2018-02-27T02:12:50.021Z,68.16
2018-02-27T02:13:16.111Z,67.88
2018-02-27T02:13:42.207Z,68.07
2018-02-27T02:14:08.308Z,67.6
2018-02-27T02:14:34.400Z,67.32
2018-02-27T02:15:00.503Z,67.32
2018-02-27T02:15:26.602Z,67.32
2018-02-27T02:15:52.712Z,67.88
2018-02-27T02:16:18.849Z,68.16
2018-02-27T02:16:44.942Z,67.88
2018-02-27T02:17:11.068Z,67.88
2018-02-27T02:17:37.151Z,67.22
2018-02-27T02:18:03.258Z,67.13
2018-02-27T02:18:29.357Z,67.41
2018-02-27T02:18:55.450Z,67.32
2018-02-27T02:19:21.545Z,67.6
2018-02-27T02:19:47.644Z,67.41
2018-02-27T02:20:13.756Z,67.22
2018-02-27T02:20:39.846Z,67.22
2018-02-27T02:21:05.942Z,67.13
2018-02-27T02:21:32.047Z,67.32
2018-02-27T02:21:58.145Z,67.32
2018-02-27T02:22:24.261Z,67.32
2018-02-27T02:22:50.362Z,67.32
2018-02-27T02:23:16.456Z,67.32
2018-02-27T02:23:42.560Z,67.32
2018-02-27T02:24:08.672Z,66.94
2018-02-27T02:24:34.771Z,66.94
2018-02-27T02:25:00.880Z,67.22
2018-02-27T02:25:26.981Z,67.13
2018-02-27T02:25:53.069Z,66.94
2018-02-27T02:26:19.167Z,67.03
2018-02-27T02:26:45.267Z,66.84
2018-02-27T02:27:11.360Z,67.22
2018-02-27T02:27:37.482Z,67.22
2018-02-27T02:28:03.604Z,66.75
2018-02-27T02:28:29.699Z,67.5
2018-02-27T02:28:55.818Z,67.41
2018-02-27T02:29:21.909Z,67.32
2018-02-27T02:29:48.004Z,67.13
2018-02-27T02:30:14.109Z,67.6
2018-02-27T02:30:40.201Z,67.6
2018-02-27T02:31:06.303Z,67.97
2018-02-27T02:31:32.392Z,67.88
2018-02-27T02:31:58.490Z,67.5
2018-02-27T02:32:24.592Z,67.5
2018-02-27T02:32:50.689Z,67.88
2018-02-27T02:33:16.787Z,67.79
2018-02-27T02:33:42.890Z,67.88
2018-02-27T02:34:09.192Z,68.07
2018-02-27T02:34:35.255Z,68.07
2018-02-27T02:35:01.356Z,67.79
2018-02-27T02:35:27.445Z,67.97
2018-02-27T02:35:53.548Z,68.07
2018-02-27T02:36:19.641Z,68.16
2018-02-27T02:36:45.736Z,67.88
2018-02-27T02:37:11.838Z,67.79
2018-02-27T02:37:37.939Z,67.79
2018-02-27T02:38:04.041Z,67.69
2018-02-27T02:38:30.141Z,67.41
2018-02-27T02:38:56.243Z,67.6
2018-02-27T02:39:22.335Z,67.88
2018-02-27T02:39:48.436Z,67.97
2018-02-27T02:40:14.532Z,67.79
2018-02-27T02:40:40.634Z,67.79
2018-02-27T02:41:06.731Z,67.79
2018-02-27T02:41:32.825Z,67.69
2018-02-27T02:41:58.928Z,67.88
2018-02-27T02:42:25.021Z,67.97
2018-02-27T02:42:51.126Z,67.69
2018-02-27T02:43:17.220Z,67.41
2018-02-27T02:43:43.312Z,67.13
2018-02-27T02:44:09.413Z,67.32
2018-02-27T02:44:35.509Z,67.5
2018-02-27T02:45:01.603Z,67.13
2018-02-27T02:45:27.699Z,67.13
2018-02-27T02:45:53.817Z,67.5
2018-02-27T02:46:19.911Z,67.41
2018-02-27T02:46:46.015Z,67.32
2018-02-27T02:47:12.148Z,67.32
2018-02-27T02:47:38.242Z,67.32
2018-02-27T02:48:04.340Z,67.13
2018-02-27T02:48:30.437Z,67.22
2018-02-27T02:48:56.537Z,67.22
2018-02-27T02:49:22.632Z,67.13
2018-02-27T02:49:48.730Z,67.32
2018-02-27T02:50:14.829Z,67.5
2018-02-27T02:50:40.921Z,67.5
2018-02-27T02:51:07.016Z,67.6
2018-02-27T02:51:33.114Z,67.6
2018-02-27T02:51:59.207Z,67.32
2018-02-27T02:52:25.312Z,67.32
2018-02-27T02:52:51.433Z,67.13
2018-02-27T02:53:17.526Z,67.6
2018-02-27T02:53:43.645Z,66.94
2018-02-27T02:54:09.740Z,67.13
2018-02-27T02:54:35.839Z,66.94
2018-02-27T02:55:01.932Z,67.41
2018-02-27T02:55:28.055Z,67.5
2018-02-27T02:55:54.146Z,67.41
2018-02-27T02:56:20.263Z,67.03
2018-02-27T02:56:46.354Z,67.5
2018-02-27T02:57:12.454Z,67.88
2018-02-27T02:57:38.545Z,67.97
2018-02-27T02:58:04.645Z,67.88
2018-02-27T02:58:30.749Z,67.97
2018-02-27T02:58:56.842Z,67.97
2018-02-27T02:59:22.941Z,68.07
2018-02-27T02:59:49.042Z,67.88
2018-02-27T03:00:15.151Z,67.88
2018-02-27T03:00:41.252Z,68.07
2018-02-27T03:01:07.351Z,68.35
2018-02-27T03:01:33.446Z,68.26
2018-02-27T03:01:59.551Z,67.6
2018-02-27T03:02:25.660Z,67.69
2018-02-27T03:02:51.755Z,67.6
2018-02-27T03:03:17.858Z,67.88
2018-02-27T03:03:43.967Z,68.16
2018-02-27T03:04:10.066Z,68.16
2018-02-27T03:04:36.160Z,68.26
2018-02-27T03:05:02.282Z,68.63
2018-02-27T03:05:28.403Z,68.63
2018-02-27T03:05:54.494Z,69.2
2018-02-27T03:06:20.590Z,68.63
2018-02-27T03:06:46.691Z,68.82
2018-02-27T03:07:12.791Z,68.63
2018-02-27T03:07:38.884Z,68.63
2018-02-27T03:08:04.988Z,68.73
2018-02-27T03:08:31.082Z,68.92
2018-02-27T03:08:57.183Z,68.54
2018-02-27T03:09:23.277Z,68.44
2018-02-27T03:09:49.377Z,68.92
2018-02-27T03:10:15.492Z,69.01
2018-02-27T03:10:41.585Z,69.3
2018-02-27T03:11:07.681Z,68.82
2018-02-27T03:11:33.779Z,69.11
2018-02-27T03:11:59.872Z,69.3
2018-02-27T03:12:25.968Z,69.01
2018-02-27T03:12:52.076Z,68.92
2018-02-27T03:13:18.168Z,68.73
2018-02-27T03:13:44.270Z,68.82
2018-02-27T03:14:10.369Z,68.73
2018-02-27T03:14:36.467Z,69.01
2018-02-27T03:15:02.562Z,69.11
2018-02-27T03:15:28.657Z,69.01
2018-02-27T03:15:54.762Z,69.01
2018-02-27T03:16:20.869Z,68.73
2018-02-27T03:16:46.966Z,69.01
2018-02-27T03:17:13.060Z,69.96
2018-02-27T03:17:39.163Z,69.49
2018-02-27T03:18:05.260Z,69.86
2018-02-27T03:18:31.358Z,69.67
2018-02-27T03:18:57.479Z,69.96
2018-02-27T03:19:23.577Z,70.15
2018-02-27T03:19:49.686Z,69.96
2018-02-27T03:20:15.770Z,69.67
2018-02-27T03:20:41.870Z,69.77
2018-02-27T03:21:07.986Z,69.96
2018-02-27T03:21:34.079Z,69.77
2018-02-27T03:22:00.179Z,70.53
2018-02-27T03:22:26.273Z,69.96
2018-02-27T03:22:52.369Z,70.62
2018-02-27T03:23:18.490Z,70.05
2018-02-27T03:23:44.566Z,70.72
2018-02-27T03:24:10.677Z,70.43
2018-02-27T03:24:36.789Z,69.86
2018-02-27T03:25:02.898Z,69.96
2018-02-27T03:25:28.996Z,70.15
2018-02-27T03:25:55.114Z,69.58
2018-02-27T03:26:21.216Z,69.67
2018-02-27T03:26:47.309Z,69.67
2018-02-27T03:27:13.406Z,69.39
2018-02-27T03:27:39.523Z,69.86
2018-02-27T03:28:05.627Z,69.39
2018-02-27T03:28:31.721Z,69.39
2018-02-27T03:28:57.818Z,69.39
2018-02-27T03:29:23.921Z,69.67
2018-02-27T03:29:50.038Z,69.58
2018-02-27T03:30:16.169Z,70.34
2018-02-27T03:30:42.262Z,69.86
2018-02-27T03:31:08.364Z,70.05
2018-02-27T03:31:34.462Z,69.96
2018-02-27T03:32:00.577Z,70.15
2018-02-27T03:32:26.677Z,70.15
2018-02-27T03:32:52.787Z,70.34
2018-02-27T03:33:18.883Z,70.15
2018-02-27T03:33:45.004Z,70.24
2018-02-27T03:34:11.110Z,70.15
2018-02-27T03:34:37.214Z,70.43
2018-02-27T03:35:03.308Z,70.15
2018-02-27T03:35:29.404Z,70.24
2018-02-27T03:35:55.504Z,70.15
2018-02-27T03:36:21.593Z,70.15
2018-02-27T03:36:47.693Z,70.24
2018-02-27T03:37:13.802Z,69.96
2018-02-27T03:37:39.907Z,70.53
2018-02-27T03:38:06.027Z,69.96
2018-02-27T03:38:32.125Z,70.15
2018-02-27T03:38:58.225Z,70.72
2018-02-27T03:39:24.322Z,70.62
2018-02-27T03:39:50.414Z,70.24
2018-02-27T03:40:16.503Z,70.43
2018-02-27T03:40:42.602Z,70.62
2018-02-27T03:41:08.697Z,70.62
2018-02-27T03:41:34.798Z,70.34
2018-02-27T03:42:00.890Z,70.62
2018-02-27T03:42:27.005Z,70.62
2018-02-27T03:42:53.102Z,71.37
2018-02-27T03:43:19.202Z,71.66
2018-02-27T03:43:45.297Z,71.75
2018-02-27T03:44:11.399Z,71.09
2018-02-27T03:44:37.506Z,71.37
2018-02-27T03:45:03.616Z,70.9
2018-02-27T03:45:29.714Z,70.9
2018-02-27T03:45:55.810Z,71.37
2018-02-27T03:46:21.906Z,70.53
2018-02-27T03:46:48.008Z,71.09
2018-02-27T03:47:14.106Z,71.56
2018-02-27T03:47:40.203Z,70.62
2018-02-27T03:48:06.300Z,71.28
2018-02-27T03:48:32.404Z,70.72
2018-02-27T03:48:58.494Z,71.47
2018-02-27T03:49:24.596Z,71.47
2018-02-27T03:49:50.707Z,71.19
2018-02-27T03:50:16.812Z,71
2018-02-27T03:50:42.911Z,71.28
2018-02-27T03:51:09.004Z,71.66
2018-02-27T03:51:35.116Z,71.28
2018-02-27T03:52:01.220Z,71.19
2018-02-27T03:52:27.318Z,71.19
2018-02-27T03:52:53.417Z,72.13
2018-02-27T03:53:19.515Z,72.03
2018-02-27T03:53:45.608Z,71.84
2018-02-27T03:54:11.702Z,71.37
2018-02-27T03:54:37.797Z,71.28
2018-02-27T03:55:03.917Z,71.94
2018-02-27T03:55:30.007Z,72.03
2018-02-27T03:55:56.108Z,71.94
2018-02-27T03:56:22.210Z,71.75
2018-02-27T03:56:48.306Z,71.75
2018-02-27T03:57:14.396Z,71.94
2018-02-27T03:57:40.494Z,71.75
2018-02-27T03:58:06.595Z,71.94
2018-02-27T03:58:32.697Z,72.13
2018-02-27T03:58:58.814Z,71.66
2018-02-27T03:59:24.911Z,71.66
2018-02-27T03:59:51.010Z,71.47
2018-02-27T04:00:17.111Z,71.56
2018-02-27T04:00:43.210Z,72.13
2018-02-27T04:01:09.313Z,72.13
2018-02-27T04:01:35.402Z,72.32
2018-02-27T04:02:01.510Z,72.32
2018-02-27T04:02:27.597Z,72.22
2018-02-27T04:02:53.693Z,72.22
2018-02-27T04:03:19.812Z,71.66
2018-02-27T04:03:45.902Z,71.75
2018-02-27T04:04:11.996Z,71.56
2018-02-27T04:04:38.103Z,71.56
2018-02-27T04:05:04.196Z,71.94
2018-02-27T04:05:30.300Z,71.75
2018-02-27T04:05:56.409Z,71.75
2018-02-27T04:06:22.517Z,71.75
2018-02-27T04:06:48.608Z,71.75
2018-02-27T04:07:14.707Z,72.13
2018-02-27T04:07:40.811Z,72.32
2018-02-27T04:08:06.906Z,71.75
2018-02-27T04:08:33.003Z,71.84
2018-02-27T04:08:59.098Z,71.56
2018-02-27T04:09:25.213Z,71.84
2018-02-27T04:09:51.322Z,71.62
2018-02-27T04:10:17.418Z,72.19
2018-02-27T04:10:43.526Z,72.38
2018-02-27T04:11:09.631Z,72.38
2018-02-27T04:11:35.749Z,72.22
2018-02-27T04:12:01.845Z,72.22
2018-02-27T04:12:27.943Z,72.22
2018-02-27T04:12:54.037Z,72.03
2018-02-27T04:13:20.140Z,72.41
2018-02-27T04:13:46.234Z,72.41
2018-02-27T04:14:12.330Z,71.94
2018-02-27T04:14:38.426Z,72.32
2018-02-27T04:15:04.544Z,72.13
2018-02-27T04:15:30.640Z,72.32
2018-02-27T04:15:56.742Z,71.66
2018-02-27T04:16:22.835Z,71.84
2018-02-27T04:16:48.935Z,71.75
2018-02-27T04:17:15.031Z,71.84
2018-02-27T04:17:41.144Z,71.56
2018-02-27T04:18:07.289Z,71.47
2018-02-27T04:18:33.391Z,71.94
2018-02-27T04:18:59.486Z,71.75
2018-02-27T04:19:25.613Z,71.56
2018-02-27T04:19:51.689Z,71.47
2018-02-27T04:20:17.783Z,71.94
2018-02-27T04:20:43.882Z,71.94
2018-02-27T04:21:09.977Z,71.94
2018-02-27T04:21:36.071Z,71.37
2018-02-27T04:22:02.173Z,71.75
2018-02-27T04:22:28.265Z,71.19
2018-02-27T04:22:54.361Z,71.56
2018-02-27T04:23:20.463Z,71
2018-02-27T04:23:46.569Z,71
2018-02-27T04:24:12.665Z,71.37
2018-02-27T04:24:38.760Z,71.09
2018-02-27T04:25:04.853Z,70.62
2018-02-27T04:25:30.949Z,70.62
2018-02-27T04:25:57.049Z,71
2018-02-27T04:26:23.174Z,71
2018-02-27T04:26:49.276Z,71.56
2018-02-27T04:27:15.396Z,71.28
2018-02-27T04:27:41.490Z,71.56
2018-02-27T04:28:07.587Z,71.47
2018-02-27T04:28:33.685Z,71
2018-02-27T04:28:59.800Z,71.47
2018-02-27T04:29:25.897Z,71.47
2018-02-27T04:29:52.011Z,71.28
2018-02-27T04:30:18.109Z,70.53
2018-02-27T04:30:44.217Z,71.34
2018-02-27T04:31:10.322Z,71.34
2018-02-27T04:31:36.414Z,71
2018-02-27T04:32:02.513Z,71.37
2018-02-27T04:32:28.613Z,71.37
2018-02-27T04:32:54.707Z,70.72
2018-02-27T04:33:20.803Z,70.9
2018-02-27T04:33:46.905Z,71.37
2018-02-27T04:34:12.996Z,70.72
2018-02-27T04:34:39.097Z,71.37
2018-02-27T04:35:05.192Z,71.19
2018-02-27T04:35:31.287Z,71.28
2018-02-27T04:35:57.390Z,71
2018-02-27T04:36:23.482Z,71.28
2018-02-27T04:36:49.577Z,71.28
2018-02-27T04:37:15.700Z,70.9
2018-02-27T04:37:41.800Z,71.37
2018-02-27T04:38:07.910Z,71.09
2018-02-27T04:38:34.001Z,71.43
2018-02-27T04:39:00.098Z,71
2018-02-27T04:39:26.218Z,71.19
2018-02-27T04:39:52.313Z,71.53
2018-02-27T04:40:18.409Z,71.53
2018-02-27T04:40:44.518Z,71.56
2018-02-27T04:41:10.622Z,71.53
2018-02-27T04:41:36.714Z,71.25
2018-02-27T04:42:02.814Z,71.19
2018-02-27T04:42:28.905Z,70.87
2018-02-27T04:42:55.004Z,71.37
2018-02-27T04:43:21.106Z,71.28
2018-02-27T04:43:47.209Z,71.19
2018-02-27T04:44:13.308Z,71.66
2018-02-27T04:44:39.405Z,71.37
2018-02-27T04:45:05.496Z,71.47
2018-02-27T04:45:31.591Z,71.09
2018-02-27T04:45:57.687Z,71.37
2018-02-27T04:46:23.791Z,70.9
2018-02-27T04:46:49.881Z,71
2018-02-27T04:47:16.004Z,71.37
2018-02-27T04:47:42.110Z,71.28
2018-02-27T04:48:08.226Z,71.09
2018-02-27T04:48:34.328Z,70.9
2018-02-27T04:49:00.416Z,70.62
2018-02-27T04:49:26.515Z,70.43
2018-02-27T04:49:52.616Z,70.53
2018-02-27T04:50:18.710Z,70.43
2018-02-27T04:50:44.807Z,70.53
2018-02-27T04:51:10.910Z,70.53
2018-02-27T04:51:37.024Z,70.72
2018-02-27T04:52:03.117Z,70.62
2018-02-27T04:52:29.215Z,70.43
2018-02-27T04:52:55.315Z,70.43
2018-02-27T04:53:21.429Z,70.24
2018-02-27T04:53:47.524Z,70.43
2018-02-27T04:54:13.620Z,70.62
2018-02-27T04:54:39.723Z,70.34
2018-02-27T04:55:05.833Z,70.24
2018-02-27T04:55:31.932Z,70.34
2018-02-27T04:55:58.037Z,70.43
2018-02-27T04:56:24.128Z,70.72
2018-02-27T04:56:50.231Z,70.72
2018-02-27T04:57:16.330Z,71
2018-02-27T04:57:42.439Z,71.19
2018-02-27T04:58:08.535Z,71.28
2018-02-27T04:58:34.636Z,71.19
2018-02-27T04:59:00.730Z,70.53
2018-02-27T04:59:26.826Z,70.81
2018-02-27T04:59:52.930Z,70.62
2018-02-27T05:00:19.027Z,70.9
2018-02-27T05:00:45.155Z,70.15
2018-02-27T05:01:11.258Z,70.34
2018-02-27T05:01:37.369Z,70.34
2018-02-27T05:02:03.472Z,70.53
2018-02-27T05:02:29.566Z,70.72
2018-02-27T05:02:55.656Z,70.15
2018-02-27T05:03:21.759Z,70.43
2018-02-27T05:03:47.899Z,70.15
2018-02-27T05:04:13.993Z,69.96
2018-02-27T05:04:40.089Z,69.96
2018-02-27T05:05:06.185Z,70.15
2018-02-27T05:05:32.278Z,70.15
2018-02-27T05:05:58.395Z,69.96
2018-02-27T05:06:24.492Z,70.24
2018-02-27T05:06:50.586Z,70.15
2018-02-27T05:07:16.691Z,70.43
2018-02-27T05:07:42.781Z,70.62
2018-02-27T05:08:08.878Z,70.62
2018-02-27T05:08:34.980Z,70.15
2018-02-27T05:09:01.070Z,70.34
2018-02-27T05:09:27.167Z,70.24
2018-02-27T05:09:53.269Z,70.53
2018-02-27T05:10:19.364Z,70.43
2018-02-27T05:10:45.458Z,70.34
2018-02-27T05:11:11.561Z,70.53
2018-02-27T05:11:37.657Z,70.53
2018-02-27T05:12:03.752Z,70.43
2018-02-27T05:12:29.854Z,70.62
2018-02-27T05:12:55.969Z,70.53
2018-02-27T05:13:22.067Z,70.72
2018-02-27T05:13:48.187Z,70.53
2018-02-27T05:14:14.279Z,70.34
2018-02-27T05:14:40.382Z,70.62
2018-02-27T05:15:06.482Z,71.28
2018-02-27T05:15:32.576Z,71.09
2018-02-27T05:15:58.677Z,71.19
2018-02-27T05:16:24.774Z,71.09
2018-02-27T05:16:50.884Z,71.37
2018-02-27T05:17:16.998Z,70.81
2018-02-27T05:17:43.097Z,71
2018-02-27T05:18:09.189Z,70.53
2018-02-27T05:18:35.288Z,70.34
2018-02-27T05:19:01.402Z,70.72
2018-02-27T05:19:27.485Z,70.62
2018-02-27T05:19:53.581Z,70.53
2018-02-27T05:20:19.684Z,70.72
2018-02-27T05:20:45.777Z,70.72
2018-02-27T05:21:11.880Z,70.72
2018-02-27T05:21:37.981Z,70.53
2018-02-27T05:22:04.071Z,70.53
2018-02-27T05:22:30.179Z,70.15
2018-02-27T05:22:56.286Z,70.53
2018-02-27T05:23:22.380Z,69.96
2018-02-27T05:23:48.475Z,70.15
2018-02-27T05:24:14.573Z,70.05
2018-02-27T05:24:40.676Z,70.53
2018-02-27T05:25:06.773Z,69.86
2018-02-27T05:25:32.873Z,70.15
2018-02-27T05:25:58.965Z,70.62
2018-02-27T05:26:25.065Z,69.96
2018-02-27T05:26:51.162Z,70.34
2018-02-27T05:27:17.265Z,70.62
2018-02-27T05:27:43.354Z,70.62
2018-02-27T05:28:09.454Z,70.53
2018-02-27T05:28:35.564Z,70.05
2018-02-27T05:29:01.667Z,70.05
2018-02-27T05:29:27.780Z,70.62
2018-02-27T05:29:53.878Z,70.72
2018-02-27T05:30:19.980Z,70.62
2018-02-27T05:30:46.080Z,70.15
2018-02-27T05:31:12.172Z,70.15
2018-02-27T05:31:38.268Z,70.05
2018-02-27T05:32:04.370Z,70.15
2018-02-27T05:32:30.463Z,70.15
2018-02-27T05:32:56.566Z,70.05
2018-02-27T05:33:22.665Z,69.86
2018-02-27T05:33:48.759Z,70.24
2018-02-27T05:34:14.859Z,69.77
2018-02-27T05:34:40.982Z,69.77
2018-02-27T05:35:07.052Z,69.86
2018-02-27T05:35:33.152Z,70.15
2018-02-27T05:35:59.245Z,69.86
2018-02-27T05:36:25.343Z,69.77
2018-02-27T05:36:51.440Z,70.15
2018-02-27T05:37:17.540Z,70.24
2018-02-27T05:37:43.641Z,69.96